Terminal Aerodrome Forecast
Issued by NWS

Home | Current Version | Previous Version | Text Only | Print | Product List | Glossary On
Versions: 1 2 3 4 5 6 7 8 9 10 11 12 13 14 15 16 17 18 19 20 21 22 23
000
FTUS43 KAPX 231410 AAC
TAFAPN
TAF AMD
KAPN 231410Z 2314/2412 02012G18KT 2SM -SN BR OVC008
      TEMPO 2314/2316 1/4SM +SN
     FM231800 34013G22KT P6SM VCSH OVC012
     FM232100 33014G23KT P6SM OVC015
     FM232300 33012G21KT P6SM OVC025
     FM240400 32010KT P6SM OVC015=

USA.gov is the U.S. government's official web portal to all federal, state and local government web resources and services.